sensor_id;sensor_type;location;lat;lon;timestamp;P1;durP1;ratioP1;P2;durP2;ratioP2
60416;SDS011;46263;44.726;10.396;2023-09-30T00:00:42;7.68;;;5.55;;
60416;SDS011;46263;44.726;10.396;2023-09-30T00:03:08;6.45;;;5.85;;
60416;SDS011;46263;44.726;10.396;2023-09-30T00:05:36;6.32;;;5.30;;
60416;SDS011;46263;44.726;10.396;2023-09-30T00:08:02;6.07;;;5.45;;
60416;SDS011;46263;44.726;10.396;2023-09-30T00:10:28;6.47;;;5.57;;
60416;SDS011;46263;44.726;10.396;2023-09-30T00:12:55;9.00;;;5.32;;
60416;SDS011;46263;44.726;10.396;2023-09-30T00:15:21;8.48;;;5.47;;
60416;SDS011;46263;44.726;10.396;2023-09-30T00:17:47;6.32;;;5.25;;
60416;SDS011;46263;44.726;10.396;2023-09-30T00:20:12;9.98;;;5.78;;
60416;SDS011;46263;44.726;10.396;2023-09-30T00:22:40;6.25;;;5.65;;
60416;SDS011;46263;44.726;10.396;2023-09-30T00:25:06;11.85;;;5.65;;
60416;SDS011;46263;44.726;10.396;2023-09-30T00:27:32;6.75;;;5.55;;
60416;SDS011;46263;44.726;10.396;2023-09-30T00:29:57;6.45;;;5.38;;
60416;SDS011;46263;44.726;10.396;2023-09-30T00:32:23;6.88;;;5.00;;
60416;SDS011;46263;44.726;10.396;2023-09-30T00:34:48;8.40;;;5.68;;
60416;SDS011;46263;44.726;10.396;2023-09-30T00:37:14;9.45;;;5.95;;
60416;SDS011;46263;44.726;10.396;2023-09-30T00:39:39;7.68;;;5.82;;
60416;SDS011;46263;44.726;10.396;2023-09-30T00:42:05;7.60;;;5.95;;
60416;SDS011;46263;44.726;10.396;2023-09-30T00:44:30;7.10;;;5.85;;
60416;SDS011;46263;44.726;10.396;2023-09-30T00:46:56;7.68;;;6.28;;
60416;SDS011;46263;44.726;10.396;2023-09-30T00:49:25;13.50;;;6.20;;
60416;SDS011;46263;44.726;10.396;2023-09-30T00:51:51;10.60;;;5.70;;
60416;SDS011;46263;44.726;10.396;2023-09-30T00:54:17;6.15;;;5.50;;
60416;SDS011;46263;44.726;10.396;2023-09-30T00:56:44;6.07;;;5.47;;
60416;SDS011;46263;44.726;10.396;2023-09-30T00:59:14;8.95;;;6.00;;
60416;SDS011;46263;44.726;10.396;2023-09-30T01:01:43;7.75;;;5.85;;
60416;SDS011;46263;44.726;10.396;2023-09-30T01:04:13;7.38;;;5.80;;
60416;SDS011;46263;44.726;10.396;2023-09-30T01:06:39;6.53;;;5.68;;
60416;SDS011;46263;44.726;10.396;2023-09-30T01:09:06;7.68;;;6.50;;
60416;SDS011;46263;44.726;10.396;2023-09-30T01:11:32;7.88;;;6.00;;
60416;SDS011;46263;44.726;10.396;2023-09-30T01:13:57;8.18;;;5.82;;
60416;SDS011;46263;44.726;10.396;2023-09-30T01:16:23;8.80;;;5.88;;
60416;SDS011;46263;44.726;10.396;2023-09-30T01:18:48;6.35;;;5.70;;
60416;SDS011;46263;44.726;10.396;2023-09-30T01:21:14;8.52;;;6.07;;
60416;SDS011;46263;44.726;10.396;2023-09-30T01:23:40;9.50;;;6.00;;
60416;SDS011;46263;44.726;10.396;2023-09-30T01:26:07;7.47;;;5.95;;
60416;SDS011;46263;44.726;10.396;2023-09-30T01:28:35;7.10;;;5.70;;
60416;SDS011;46263;44.726;10.396;2023-09-30T01:31:00;6.82;;;6.22;;
60416;SDS011;46263;44.726;10.396;2023-09-30T01:33:26;7.75;;;5.78;;
60416;SDS011;46263;44.726;10.396;2023-09-30T01:35:52;8.65;;;5.70;;
60416;SDS011;46263;44.726;10.396;2023-09-30T01:38:18;9.80;;;6.10;;
60416;SDS011;46263;44.726;10.396;2023-09-30T01:40:43;7.05;;;5.63;;
60416;SDS011;46263;44.726;10.396;2023-09-30T01:43:09;8.45;;;5.55;;
60416;SDS011;46263;44.726;10.396;2023-09-30T01:45:38;6.53;;;5.82;;
60416;SDS011;46263;44.726;10.396;2023-09-30T01:48:05;13.10;;;5.70;;
60416;SDS011;46263;44.726;10.396;2023-09-30T01:50:30;8.43;;;5.93;;
60416;SDS011;46263;44.726;10.396;2023-09-30T01:52:56;9.07;;;6.22;;
60416;SDS011;46263;44.726;10.396;2023-09-30T01:55:22;8.07;;;6.35;;
60416;SDS011;46263;44.726;10.396;2023-09-30T01:57:47;9.70;;;5.70;;
60416;SDS011;46263;44.726;10.396;2023-09-30T02:00:13;8.13;;;6.22;;
60416;SDS011;46263;44.726;10.396;2023-09-30T02:02:38;10.88;;;6.43;;
60416;SDS011;46263;44.726;10.396;2023-09-30T02:05:04;8.27;;;5.93;;
60416;SDS011;46263;44.726;10.396;2023-09-30T02:07:33;8.65;;;6.50;;
60416;SDS011;46263;44.726;10.396;2023-09-30T02:09:59;10.88;;;6.07;;
60416;SDS011;46263;44.726;10.396;2023-09-30T02:12:26;10.88;;;6.15;;
60416;SDS011;46263;44.726;10.396;2023-09-30T02:14:54;9.07;;;5.85;;
60416;SDS011;46263;44.726;10.396;2023-09-30T02:17:20;8.25;;;5.65;;
60416;SDS011;46263;44.726;10.396;2023-09-30T02:19:45;10.10;;;6.68;;
60416;SDS011;46263;44.726;10.396;2023-09-30T02:22:12;10.27;;;6.25;;
60416;SDS011;46263;44.726;10.396;2023-09-30T02:24:37;7.63;;;6.20;;
60416;SDS011;46263;44.726;10.396;2023-09-30T02:27:05;8.68;;;6.30;;
60416;SDS011;46263;44.726;10.396;2023-09-30T02:29:31;9.98;;;6.57;;
60416;SDS011;46263;44.726;10.396;2023-09-30T02:31:56;8.65;;;6.13;;
60416;SDS011;46263;44.726;10.396;2023-09-30T02:34:22;7.22;;;5.78;;
60416;SDS011;46263;44.726;10.396;2023-09-30T02:36:49;6.72;;;5.80;;
60416;SDS011;46263;44.726;10.396;2023-09-30T02:39:14;6.47;;;5.43;;
60416;SDS011;46263;44.726;10.396;2023-09-30T02:41:41;6.00;;;5.35;;
60416;SDS011;46263;44.726;10.396;2023-09-30T02:44:07;5.85;;;4.90;;
60416;SDS011;46263;44.726;10.396;2023-09-30T02:46:33;12.80;;;5.43;;
60416;SDS011;46263;44.726;10.396;2023-09-30T02:49:00;5.53;;;4.97;;
60416;SDS011;46263;44.726;10.396;2023-09-30T02:51:26;5.45;;;4.95;;
60416;SDS011;46263;44.726;10.396;2023-09-30T02:53:51;6.50;;;5.30;;
60416;SDS011;46263;44.726;10.396;2023-09-30T02:56:17;5.57;;;4.72;;
60416;SDS011;46263;44.726;10.396;2023-09-30T02:58:45;5.50;;;4.80;;
60416;SDS011;46263;44.726;10.396;2023-09-30T03:01:13;6.50;;;4.70;;
60416;SDS011;46263;44.726;10.396;2023-09-30T03:03:41;5.78;;;5.18;;
60416;SDS011;46263;44.726;10.396;2023-09-30T03:06:09;5.60;;;5.10;;
60416;SDS011;46263;44.726;10.396;2023-09-30T03:08:35;7.93;;;5.68;;
60416;SDS011;46263;44.726;10.396;2023-09-30T03:11:01;5.50;;;4.68;;
60416;SDS011;46263;44.726;10.396;2023-09-30T03:13:27;7.88;;;5.00;;
60416;SDS011;46263;44.726;10.396;2023-09-30T03:15:53;5.88;;;5.05;;
60416;SDS011;46263;44.726;10.396;2023-09-30T03:18:18;6.65;;;5.93;;
60416;SDS011;46263;44.726;10.396;2023-09-30T03:20:51;7.22;;;5.40;;
60416;SDS011;46263;44.726;10.396;2023-09-30T03:23:25;9.55;;;5.57;;
60416;SDS011;46263;44.726;10.396;2023-09-30T03:25:58;6.57;;;5.60;;
60416;SDS011;46263;44.726;10.396;2023-09-30T03:28:27;7.28;;;5.78;;
60416;SDS011;46263;44.726;10.396;2023-09-30T03:30:54;8.30;;;5.70;;
60416;SDS011;46263;44.726;10.396;2023-09-30T03:33:19;5.82;;;5.28;;
60416;SDS011;46263;44.726;10.396;2023-09-30T03:35:44;7.47;;;5.72;;
60416;SDS011;46263;44.726;10.396;2023-09-30T03:38:10;6.20;;;5.47;;
60416;SDS011;46263;44.726;10.396;2023-09-30T03:40:38;7.88;;;5.38;;
60416;SDS011;46263;44.726;10.396;2023-09-30T03:43:04;6.32;;;5.00;;
60416;SDS011;46263;44.726;10.396;2023-09-30T03:45:33;5.82;;;5.20;;
60416;SDS011;46263;44.726;10.396;2023-09-30T03:47:59;6.13;;;5.53;;
60416;SDS011;46263;44.726;10.396;2023-09-30T03:50:26;6.95;;;5.78;;
60416;SDS011;46263;44.726;10.396;2023-09-30T03:53:00;6.60;;;5.85;;
60416;SDS011;46263;44.726;10.396;2023-09-30T03:55:30;6.43;;;5.63;;
60416;SDS011;46263;44.726;10.396;2023-09-30T03:57:57;10.45;;;6.03;;
60416;SDS011;46263;44.726;10.396;2023-09-30T04:00:22;10.63;;;6.07;;
60416;SDS011;46263;44.726;10.396;2023-09-30T04:02:49;6.65;;;5.97;;
60416;SDS011;46263;44.726;10.396;2023-09-30T04:05:16;9.82;;;6.03;;
60416;SDS011;46263;44.726;10.396;2023-09-30T04:07:42;6.78;;;5.25;;
60416;SDS011;46263;44.726;10.396;2023-09-30T04:10:08;6.80;;;5.63;;
60416;SDS011;46263;44.726;10.396;2023-09-30T04:12:35;7.43;;;5.45;;
60416;SDS011;46263;44.726;10.396;2023-09-30T04:15:00;8.55;;;6.07;;
60416;SDS011;46263;44.726;10.396;2023-09-30T04:17:26;9.32;;;6.20;;
60416;SDS011;46263;44.726;10.396;2023-09-30T04:19:54;6.80;;;5.63;;
60416;SDS011;46263;44.726;10.396;2023-09-30T04:22:19;6.22;;;5.50;;
60416;SDS011;46263;44.726;10.396;2023-09-30T04:24:46;8.77;;;6.07;;
60416;SDS011;46263;44.726;10.396;2023-09-30T04:27:12;7.53;;;5.70;;
60416;SDS011;46263;44.726;10.396;2023-09-30T04:29:37;5.95;;;5.10;;
60416;SDS011;46263;44.726;10.396;2023-09-30T04:32:04;6.78;;;5.85;;
60416;SDS011;46263;44.726;10.396;2023-09-30T04:34:30;8.65;;;5.75;;
60416;SDS011;46263;44.726;10.396;2023-09-30T04:36:55;7.72;;;5.78;;
60416;SDS011;46263;44.726;10.396;2023-09-30T04:39:21;8.05;;;5.50;;
60416;SDS011;46263;44.726;10.396;2023-09-30T04:41:47;6.20;;;5.60;;
60416;SDS011;46263;44.726;10.396;2023-09-30T04:44:13;7.30;;;5.43;;
60416;SDS011;46263;44.726;10.396;2023-09-30T04:46:38;5.68;;;5.18;;
60416;SDS011;46263;44.726;10.396;2023-09-30T04:49:07;7.20;;;5.60;;
60416;SDS011;46263;44.726;10.396;2023-09-30T04:51:32;6.70;;;6.03;;
60416;SDS011;46263;44.726;10.396;2023-09-30T04:53:59;7.38;;;5.05;;
60416;SDS011;46263;44.726;10.396;2023-09-30T04:56:24;5.32;;;4.90;;
60416;SDS011;46263;44.726;10.396;2023-09-30T04:58:50;5.70;;;5.20;;
60416;SDS011;46263;44.726;10.396;2023-09-30T05:01:16;6.90;;;5.47;;
60416;SDS011;46263;44.726;10.396;2023-09-30T05:03:43;6.32;;;5.28;;
60416;SDS011;46263;44.726;10.396;2023-09-30T05:06:09;7.85;;;5.10;;
60416;SDS011;46263;44.726;10.396;2023-09-30T05:08:35;8.10;;;5.13;;
60416;SDS011;46263;44.726;10.396;2023-09-30T05:11:00;8.23;;;5.50;;
60416;SDS011;46263;44.726;10.396;2023-09-30T05:13:26;7.72;;;5.40;;
60416;SDS011;46263;44.726;10.396;2023-09-30T05:15:52;9.18;;;5.07;;
60416;SDS011;46263;44.726;10.396;2023-09-30T05:18:18;5.93;;;5.43;;
60416;SDS011;46263;44.726;10.396;2023-09-30T05:20:43;6.15;;;5.47;;
60416;SDS011;46263;44.726;10.396;2023-09-30T05:23:09;8.50;;;5.60;;
60416;SDS011;46263;44.726;10.396;2023-09-30T05:25:38;7.07;;;6.38;;
60416;SDS011;46263;44.726;10.396;2023-09-30T05:28:05;5.88;;;5.28;;
60416;SDS011;46263;44.726;10.396;2023-09-30T05:30:32;5.80;;;5.05;;
60416;SDS011;46263;44.726;10.396;2023-09-30T05:32:58;10.48;;;5.43;;
60416;SDS011;46263;44.726;10.396;2023-09-30T05:35:24;10.13;;;5.70;;
60416;SDS011;46263;44.726;10.396;2023-09-30T05:37:49;7.10;;;5.45;;
60416;SDS011;46263;44.726;10.396;2023-09-30T05:40:18;5.90;;;5.30;;
60416;SDS011;46263;44.726;10.396;2023-09-30T05:42:56;6.78;;;5.55;;
60416;SDS011;46263;44.726;10.396;2023-09-30T05:45:23;7.28;;;5.57;;
60416;SDS011;46263;44.726;10.396;2023-09-30T05:47:49;6.80;;;5.60;;
60416;SDS011;46263;44.726;10.396;2023-09-30T05:50:17;8.02;;;5.68;;
60416;SDS011;46263;44.726;10.396;2023-09-30T05:52:49;6.13;;;5.22;;
60416;SDS011;46263;44.726;10.396;2023-09-30T05:55:16;6.45;;;5.85;;
60416;SDS011;46263;44.726;10.396;2023-09-30T05:57:51;6.85;;;5.72;;
60416;SDS011;46263;44.726;10.396;2023-09-30T06:00:19;6.63;;;6.03;;
60416;SDS011;46263;44.726;10.396;2023-09-30T06:02:56;10.38;;;5.43;;
60416;SDS011;46263;44.726;10.396;2023-09-30T06:05:22;11.15;;;5.80;;
60416;SDS011;46263;44.726;10.396;2023-09-30T06:07:47;7.70;;;5.97;;
60416;SDS011;46263;44.726;10.396;2023-09-30T06:10:16;7.68;;;5.53;;
60416;SDS011;46263;44.726;10.396;2023-09-30T06:12:43;17.63;;;5.80;;
60416;SDS011;46263;44.726;10.396;2023-09-30T06:15:13;6.63;;;5.22;;
60416;SDS011;46263;44.726;10.396;2023-09-30T06:17:39;7.97;;;5.15;;
60416;SDS011;46263;44.726;10.396;2023-09-30T06:20:05;7.13;;;5.43;;
60416;SDS011;46263;44.726;10.396;2023-09-30T06:22:41;7.82;;;5.50;;
60416;SDS011;46263;44.726;10.396;2023-09-30T06:25:08;5.68;;;4.80;;
60416;SDS011;46263;44.726;10.396;2023-09-30T06:27:34;5.15;;;4.50;;
60416;SDS011;46263;44.726;10.396;2023-09-30T06:29:59;7.90;;;5.15;;
60416;SDS011;46263;44.726;10.396;2023-09-30T06:32:24;6.57;;;5.10;;
60416;SDS011;46263;44.726;10.396;2023-09-30T06:34:50;5.68;;;5.13;;
60416;SDS011;46263;44.726;10.396;2023-09-30T06:37:15;6.97;;;5.40;;
60416;SDS011;46263;44.726;10.396;2023-09-30T06:39:41;6.97;;;5.20;;
60416;SDS011;46263;44.726;10.396;2023-09-30T06:42:06;10.23;;;5.50;;
60416;SDS011;46263;44.726;10.396;2023-09-30T06:44:32;9.90;;;5.22;;
60416;SDS011;46263;44.726;10.396;2023-09-30T06:46:57;6.13;;;5.15;;
60416;SDS011;46263;44.726;10.396;2023-09-30T06:49:23;7.18;;;4.78;;
60416;SDS011;46263;44.726;10.396;2023-09-30T06:51:49;10.30;;;5.28;;
60416;SDS011;46263;44.726;10.396;2023-09-30T06:54:14;8.93;;;5.30;;
60416;SDS011;46263;44.726;10.396;2023-09-30T06:56:40;8.50;;;5.50;;
60416;SDS011;46263;44.726;10.396;2023-09-30T06:59:06;7.50;;;5.18;;
60416;SDS011;46263;44.726;10.396;2023-09-30T07:01:31;8.98;;;5.07;;
60416;SDS011;46263;44.726;10.396;2023-09-30T07:03:57;5.45;;;4.95;;
60416;SDS011;46263;44.726;10.396;2023-09-30T07:06:23;6.93;;;5.40;;
60416;SDS011;46263;44.726;10.396;2023-09-30T07:08:49;9.45;;;5.32;;
60416;SDS011;46263;44.726;10.396;2023-09-30T07:11:15;9.68;;;5.93;;
60416;SDS011;46263;44.726;10.396;2023-09-30T07:13:40;11.90;;;5.50;;
60416;SDS011;46263;44.726;10.396;2023-09-30T07:16:05;9.70;;;5.25;;
60416;SDS011;46263;44.726;10.396;2023-09-30T07:18:31;8.75;;;5.38;;
60416;SDS011;46263;44.726;10.396;2023-09-30T07:20:56;7.78;;;5.60;;
60416;SDS011;46263;44.726;10.396;2023-09-30T07:23:22;8.52;;;5.25;;
60416;SDS011;46263;44.726;10.396;2023-09-30T07:25:47;10.57;;;5.22;;
60416;SDS011;46263;44.726;10.396;2023-09-30T07:28:13;6.82;;;5.10;;
60416;SDS011;46263;44.726;10.396;2023-09-30T07:30:39;6.18;;;4.80;;
60416;SDS011;46263;44.726;10.396;2023-09-30T07:33:05;7.88;;;4.90;;
60416;SDS011;46263;44.726;10.396;2023-09-30T07:35:31;9.68;;;4.72;;
60416;SDS011;46263;44.726;10.396;2023-09-30T07:37:57;6.78;;;5.45;;
60416;SDS011;46263;44.726;10.396;2023-09-30T07:40:23;6.63;;;5.68;;
60416;SDS011;46263;44.726;10.396;2023-09-30T07:42:48;6.63;;;5.57;;
60416;SDS011;46263;44.726;10.396;2023-09-30T07:45:15;10.90;;;6.28;;
60416;SDS011;46263;44.726;10.396;2023-09-30T07:47:43;7.78;;;5.95;;
60416;SDS011;46263;44.726;10.396;2023-09-30T07:50:11;13.13;;;6.20;;
60416;SDS011;46263;44.726;10.396;2023-09-30T07:52:37;8.98;;;6.00;;
60416;SDS011;46263;44.726;10.396;2023-09-30T07:55:07;11.27;;;6.78;;
60416;SDS011;46263;44.726;10.396;2023-09-30T07:57:34;14.15;;;6.45;;
60416;SDS011;46263;44.726;10.396;2023-09-30T08:00:00;9.23;;;5.80;;
60416;SDS011;46263;44.726;10.396;2023-09-30T08:02:27;10.38;;;6.05;;
60416;SDS011;46263;44.726;10.396;2023-09-30T08:04:58;7.37;;;6.17;;
60416;SDS011;46263;44.726;10.396;2023-09-30T08:07:24;6.63;;;5.72;;
60416;SDS011;46263;44.726;10.396;2023-09-30T08:09:50;7.97;;;5.50;;
60416;SDS011;46263;44.726;10.396;2023-09-30T08:12:16;10.50;;;5.80;;
60416;SDS011;46263;44.726;10.396;2023-09-30T08:14:41;9.93;;;5.97;;
60416;SDS011;46263;44.726;10.396;2023-09-30T08:17:09;9.52;;;6.00;;
60416;SDS011;46263;44.726;10.396;2023-09-30T08:19:35;8.63;;;6.22;;
60416;SDS011;46263;44.726;10.396;2023-09-30T08:22:01;9.32;;;5.95;;
60416;SDS011;46263;44.726;10.396;2023-09-30T08:24:28;7.95;;;6.30;;
60416;SDS011;46263;44.726;10.396;2023-09-30T08:26:54;9.38;;;5.60;;
60416;SDS011;46263;44.726;10.396;2023-09-30T08:29:20;8.60;;;6.22;;
60416;SDS011;46263;44.726;10.396;2023-09-30T08:31:46;8.50;;;6.65;;
60416;SDS011;46263;44.726;10.396;2023-09-30T08:34:11;10.20;;;5.57;;
60416;SDS011;46263;44.726;10.396;2023-09-30T08:36:39;6.97;;;6.10;;
60416;SDS011;46263;44.726;10.396;2023-09-30T08:39:06;6.72;;;5.85;;
60416;SDS011;46263;44.726;10.396;2023-09-30T08:41:32;12.85;;;6.53;;
60416;SDS011;46263;44.726;10.396;2023-09-30T08:44:02;11.20;;;6.70;;
60416;SDS011;46263;44.726;10.396;2023-09-30T08:46:30;10.23;;;8.20;;
60416;SDS011;46263;44.726;10.396;2023-09-30T08:48:58;11.15;;;7.68;;
60416;SDS011;46263;44.726;10.396;2023-09-30T08:51:25;14.35;;;9.20;;
60416;SDS011;46263;44.726;10.396;2023-09-30T08:53:52;11.18;;;8.20;;
60416;SDS011;46263;44.726;10.396;2023-09-30T08:56:19;9.95;;;7.95;;
60416;SDS011;46263;44.726;10.396;2023-09-30T08:58:49;14.15;;;8.93;;
60416;SDS011;46263;44.726;10.396;2023-09-30T09:01:15;14.43;;;9.07;;
60416;SDS011;46263;44.726;10.396;2023-09-30T09:03:41;12.55;;;9.35;;
60416;SDS011;46263;44.726;10.396;2023-09-30T09:06:06;13.40;;;7.63;;
60416;SDS011;46263;44.726;10.396;2023-09-30T09:08:32;14.02;;;7.80;;
60416;SDS011;46263;44.726;10.396;2023-09-30T09:10:59;14.88;;;7.80;;
60416;SDS011;46263;44.726;10.396;2023-09-30T09:13:26;13.73;;;7.80;;
60416;SDS011;46263;44.726;10.396;2023-09-30T09:16:10;12.25;;;8.10;;
60416;SDS011;46263;44.726;10.396;2023-09-30T09:18:36;9.93;;;7.25;;
60416;SDS011;46263;44.726;10.396;2023-09-30T09:21:08;10.32;;;7.43;;
60416;SDS011;46263;44.726;10.396;2023-09-30T09:23:45;9.65;;;7.10;;
60416;SDS011;46263;44.726;10.396;2023-09-30T09:26:12;14.18;;;7.32;;
60416;SDS011;46263;44.726;10.396;2023-09-30T09:28:49;9.82;;;7.03;;
60416;SDS011;46263;44.726;10.396;2023-09-30T09:31:28;16.23;;;7.70;;
60416;SDS011;46263;44.726;10.396;2023-09-30T09:34:03;9.13;;;7.15;;
60416;SDS011;46263;44.726;10.396;2023-09-30T09:36:44;11.98;;;7.07;;
60416;SDS011;46263;44.726;10.396;2023-09-30T09:39:11;12.93;;;7.25;;
60416;SDS011;46263;44.726;10.396;2023-09-30T09:41:50;14.23;;;8.07;;
60416;SDS011;46263;44.726;10.396;2023-09-30T09:44:16;14.73;;;7.10;;
60416;SDS011;46263;44.726;10.396;2023-09-30T09:46:44;11.32;;;7.28;;
60416;SDS011;46263;44.726;10.396;2023-09-30T09:49:12;10.90;;;7.03;;
60416;SDS011;46263;44.726;10.396;2023-09-30T09:51:38;14.32;;;7.70;;
60416;SDS011;46263;44.726;10.396;2023-09-30T09:54:04;14.27;;;7.65;;
60416;SDS011;46263;44.726;10.396;2023-09-30T09:56:33;15.45;;;9.82;;
60416;SDS011;46263;44.726;10.396;2023-09-30T09:59:00;12.07;;;7.50;;
60416;SDS011;46263;44.726;10.396;2023-09-30T10:01:29;15.25;;;8.80;;
60416;SDS011;46263;44.726;10.396;2023-09-30T10:03:56;16.20;;;8.35;;
60416;SDS011;46263;44.726;10.396;2023-09-30T10:06:21;14.00;;;8.10;;
60416;SDS011;46263;44.726;10.396;2023-09-30T10:08:49;13.48;;;8.48;;
60416;SDS011;46263;44.726;10.396;2023-09-30T10:11:20;15.27;;;8.88;;
60416;SDS011;46263;44.726;10.396;2023-09-30T10:13:55;14.30;;;7.95;;
60416;SDS011;46263;44.726;10.396;2023-09-30T10:19:09;13.85;;;7.95;;
60416;SDS011;46263;44.726;10.396;2023-09-30T10:21:37;13.73;;;8.80;;
60416;SDS011;46263;44.726;10.396;2023-09-30T10:27:27;13.10;;;8.25;;
60416;SDS011;46263;44.726;10.396;2023-09-30T10:35:15;15.38;;;8.38;;
60416;SDS011;46263;44.726;10.396;2023-09-30T10:37:45;13.15;;;8.23;;
60416;SDS011;46263;44.726;10.396;2023-09-30T10:40:28;17.48;;;10.07;;
60416;SDS011;46263;44.726;10.396;2023-09-30T10:42:54;14.85;;;9.27;;
60416;SDS011;46263;44.726;10.396;2023-09-30T10:51:19;14.93;;;8.68;;
60416;SDS011;46263;44.726;10.396;2023-09-30T10:53:52;18.17;;;10.38;;
60416;SDS011;46263;44.726;10.396;2023-09-30T10:56:22;13.98;;;10.07;;
60416;SDS011;46263;44.726;10.396;2023-09-30T11:01:16;18.77;;;12.30;;
60416;SDS011;46263;44.726;10.396;2023-09-30T11:03:44;15.52;;;12.05;;
60416;SDS011;46263;44.726;10.396;2023-09-30T11:06:11;20.08;;;12.38;;
60416;SDS011;46263;44.726;10.396;2023-09-30T11:08:54;17.95;;;10.63;;
60416;SDS011;46263;44.726;10.396;2023-09-30T11:13:59;15.85;;;10.95;;
60416;SDS011;46263;44.726;10.396;2023-09-30T11:16:24;19.10;;;12.00;;
60416;SDS011;46263;44.726;10.396;2023-09-30T11:18:53;17.95;;;9.63;;
60416;SDS011;46263;44.726;10.396;2023-09-30T11:21:19;17.83;;;9.98;;
60416;SDS011;46263;44.726;10.396;2023-09-30T11:23:45;13.65;;;9.15;;
60416;SDS011;46263;44.726;10.396;2023-09-30T11:26:11;15.68;;;9.40;;
60416;SDS011;46263;44.726;10.396;2023-09-30T11:28:42;13.13;;;9.15;;
60416;SDS011;46263;44.726;10.396;2023-09-30T11:31:13;16.15;;;10.10;;
60416;SDS011;46263;44.726;10.396;2023-09-30T11:33:51;17.55;;;9.38;;
60416;SDS011;46263;44.726;10.396;2023-09-30T11:36:21;14.98;;;9.38;;
60416;SDS011;46263;44.726;10.396;2023-09-30T11:38:47;16.23;;;9.77;;
60416;SDS011;46263;44.726;10.396;2023-09-30T11:41:14;11.63;;;8.40;;
60416;SDS011;46263;44.726;10.396;2023-09-30T11:44:02;15.70;;;8.30;;
60416;SDS011;46263;44.726;10.396;2023-09-30T11:46:57;14.57;;;8.50;;
60416;SDS011;46263;44.726;10.396;2023-09-30T11:49:37;10.73;;;8.77;;
60416;SDS011;46263;44.726;10.396;2023-09-30T11:52:04;14.27;;;8.68;;
60416;SDS011;46263;44.726;10.396;2023-09-30T11:54:36;11.40;;;9.35;;
60416;SDS011;46263;44.726;10.396;2023-09-30T11:57:04;13.32;;;8.30;;
60416;SDS011;46263;44.726;10.396;2023-09-30T11:59:30;12.70;;;8.05;;
60416;SDS011;46263;44.726;10.396;2023-09-30T12:01:57;12.98;;;8.02;;
60416;SDS011;46263;44.726;10.396;2023-09-30T12:04:24;13.50;;;8.02;;
60416;SDS011;46263;44.726;10.396;2023-09-30T12:06:50;8.93;;;7.22;;
60416;SDS011;46263;44.726;10.396;2023-09-30T12:09:17;15.45;;;8.68;;
60416;SDS011;46263;44.726;10.396;2023-09-30T12:11:54;13.35;;;8.10;;
60416;SDS011;46263;44.726;10.396;2023-09-30T12:14:20;10.38;;;7.18;;
60416;SDS011;46263;44.726;10.396;2023-09-30T12:16:47;10.38;;;7.13;;
60416;SDS011;46263;44.726;10.396;2023-09-30T12:19:14;9.25;;;6.60;;
60416;SDS011;46263;44.726;10.396;2023-09-30T12:21:41;10.55;;;6.63;;
60416;SDS011;46263;44.726;10.396;2023-09-30T12:24:07;10.55;;;7.45;;
60416;SDS011;46263;44.726;10.396;2023-09-30T12:26:34;12.07;;;6.63;;
60416;SDS011;46263;44.726;10.396;2023-09-30T12:29:01;8.80;;;5.82;;
60416;SDS011;46263;44.726;10.396;2023-09-30T12:31:27;8.35;;;6.15;;
60416;SDS011;46263;44.726;10.396;2023-09-30T12:33:52;10.80;;;6.07;;
60416;SDS011;46263;44.726;10.396;2023-09-30T12:36:18;8.27;;;6.28;;
60416;SDS011;46263;44.726;10.396;2023-09-30T12:38:44;12.65;;;6.30;;
60416;SDS011;46263;44.726;10.396;2023-09-30T12:41:10;9.95;;;6.70;;
60416;SDS011;46263;44.726;10.396;2023-09-30T12:43:36;14.07;;;7.63;;
60416;SDS011;46263;44.726;10.396;2023-09-30T12:46:02;11.18;;;6.72;;
60416;SDS011;46263;44.726;10.396;2023-09-30T12:48:29;8.98;;;6.32;;
60416;SDS011;46263;44.726;10.396;2023-09-30T12:50:55;11.00;;;6.70;;
60416;SDS011;46263;44.726;10.396;2023-09-30T12:53:20;8.30;;;6.05;;
60416;SDS011;46263;44.726;10.396;2023-09-30T12:55:45;10.38;;;6.53;;
60416;SDS011;46263;44.726;10.396;2023-09-30T12:58:11;10.93;;;6.57;;
60416;SDS011;46263;44.726;10.396;2023-09-30T13:00:36;9.82;;;6.07;;
60416;SDS011;46263;44.726;10.396;2023-09-30T13:03:02;10.15;;;5.65;;
60416;SDS011;46263;44.726;10.396;2023-09-30T13:05:28;6.22;;;5.20;;
60416;SDS011;46263;44.726;10.396;2023-09-30T13:07:54;6.10;;;4.90;;
60416;SDS011;46263;44.726;10.396;2023-09-30T13:10:21;11.27;;;5.75;;
60416;SDS011;46263;44.726;10.396;2023-09-30T13:12:47;8.25;;;5.57;;
60416;SDS011;46263;44.726;10.396;2023-09-30T13:15:14;12.98;;;5.90;;
60416;SDS011;46263;44.726;10.396;2023-09-30T13:17:42;10.60;;;5.78;;
60416;SDS011;46263;44.726;10.396;2023-09-30T13:20:08;10.02;;;5.68;;
60416;SDS011;46263;44.726;10.396;2023-09-30T13:22:34;8.85;;;6.13;;
60416;SDS011;46263;44.726;10.396;2023-09-30T13:25:07;17.15;;;6.05;;
60416;SDS011;46263;44.726;10.396;2023-09-30T13:27:39;11.82;;;6.28;;
60416;SDS011;46263;44.726;10.396;2023-09-30T13:30:06;8.98;;;6.13;;
60416;SDS011;46263;44.726;10.396;2023-09-30T13:32:33;9.57;;;5.80;;
60416;SDS011;46263;44.726;10.396;2023-09-30T13:35:02;13.77;;;6.00;;
60416;SDS011;46263;44.726;10.396;2023-09-30T13:37:31;8.90;;;6.03;;
60416;SDS011;46263;44.726;10.396;2023-09-30T13:40:02;12.00;;;5.68;;
60416;SDS011;46263;44.726;10.396;2023-09-30T13:42:29;7.93;;;5.35;;
60416;SDS011;46263;44.726;10.396;2023-09-30T13:44:55;8.80;;;4.93;;
60416;SDS011;46263;44.726;10.396;2023-09-30T13:47:23;8.32;;;4.85;;
60416;SDS011;46263;44.726;10.396;2023-09-30T13:49:50;7.72;;;5.28;;
60416;SDS011;46263;44.726;10.396;2023-09-30T13:52:15;7.38;;;5.25;;
60416;SDS011;46263;44.726;10.396;2023-09-30T13:54:41;7.22;;;4.70;;
60416;SDS011;46263;44.726;10.396;2023-09-30T13:57:06;6.63;;;5.65;;
60416;SDS011;46263;44.726;10.396;2023-09-30T13:59:35;13.52;;;6.00;;
60416;SDS011;46263;44.726;10.396;2023-09-30T14:02:02;8.88;;;5.40;;
60416;SDS011;46263;44.726;10.396;2023-09-30T14:04:29;8.07;;;5.60;;
60416;SDS011;46263;44.726;10.396;2023-09-30T14:06:57;10.88;;;5.70;;
60416;SDS011;46263;44.726;10.396;2023-09-30T14:09:25;6.65;;;5.60;;
60416;SDS011;46263;44.726;10.396;2023-09-30T14:11:51;10.68;;;6.13;;
60416;SDS011;46263;44.726;10.396;2023-09-30T14:14:17;12.30;;;6.15;;
60416;SDS011;46263;44.726;10.396;2023-09-30T14:16:42;8.88;;;5.63;;
60416;SDS011;46263;44.726;10.396;2023-09-30T14:19:08;8.73;;;5.10;;
60416;SDS011;46263;44.726;10.396;2023-09-30T14:21:33;9.30;;;5.97;;
60416;SDS011;46263;44.726;10.396;2023-09-30T14:23:59;15.10;;;5.60;;
60416;SDS011;46263;44.726;10.396;2023-09-30T14:26:27;11.10;;;5.60;;
60416;SDS011;46263;44.726;10.396;2023-09-30T14:28:52;11.70;;;5.65;;
60416;SDS011;46263;44.726;10.396;2023-09-30T14:31:18;9.20;;;5.85;;
60416;SDS011;46263;44.726;10.396;2023-09-30T14:33:43;6.22;;;5.63;;
60416;SDS011;46263;44.726;10.396;2023-09-30T14:36:09;9.52;;;5.60;;
60416;SDS011;46263;44.726;10.396;2023-09-30T14:38:34;10.82;;;5.57;;
60416;SDS011;46263;44.726;10.396;2023-09-30T14:41:01;13.57;;;5.70;;
60416;SDS011;46263;44.726;10.396;2023-09-30T14:43:32;11.13;;;6.03;;
60416;SDS011;46263;44.726;10.396;2023-09-30T14:46:00;10.88;;;5.50;;
60416;SDS011;46263;44.726;10.396;2023-09-30T14:48:26;11.68;;;6.03;;
60416;SDS011;46263;44.726;10.396;2023-09-30T14:50:52;8.18;;;5.65;;